sensor_id;sensor_type;location;lat;lon;timestamp;temperature;humidity
3344;DHT22;1685;53.104;8.228;2022-09-20T00:00:42;10.80;99.90
3344;DHT22;1685;53.104;8.228;2022-09-20T00:03:11;10.80;99.90
3344;DHT22;1685;53.104;8.228;2022-09-20T00:05:40;10.80;99.90
3344;DHT22;1685;53.104;8.228;2022-09-20T00:08:11;10.70;99.90
3344;DHT22;1685;53.104;8.228;2022-09-20T00:13:11;10.70;99.90
3344;DHT22;1685;53.104;8.228;2022-09-20T00:15:43;10.70;99.90
3344;DHT22;1685;53.104;8.228;2022-09-20T00:20:43;10.70;99.90
3344;DHT22;1685;53.104;8.228;2022-09-20T00:25:37;10.60;99.90
3344;DHT22;1685;53.104;8.228;2022-09-20T00:30:33;10.50;99.90
3344;DHT22;1685;53.104;8.228;2022-09-20T00:42:49;10.40;99.90
3344;DHT22;1685;53.104;8.228;2022-09-20T00:45:20;10.30;99.90
3344;DHT22;1685;53.104;8.228;2022-09-20T00:47:52;10.30;99.90
3344;DHT22;1685;53.104;8.228;2022-09-20T00:50:28;10.30;99.90
3344;DHT22;1685;53.104;8.228;2022-09-20T00:53:01;10.30;99.90
3344;DHT22;1685;53.104;8.228;2022-09-20T00:57:56;10.20;99.90
3344;DHT22;1685;53.104;8.228;2022-09-20T01:00:25;10.30;99.90
3344;DHT22;1685;53.104;8.228;2022-09-20T01:02:56;10.20;99.90
3344;DHT22;1685;53.104;8.228;2022-09-20T01:05:24;10.00;99.90
3344;DHT22;1685;53.104;8.228;2022-09-20T01:07:53;10.20;99.90
3344;DHT22;1685;53.104;8.228;2022-09-20T01:12:48;10.20;99.90
3344;DHT22;1685;53.104;8.228;2022-09-20T01:15:16;10.30;99.90
3344;DHT22;1685;53.104;8.228;2022-09-20T01:17:46;10.30;99.90
3344;DHT22;1685;53.104;8.228;2022-09-20T01:20:19;10.20;99.90
3344;DHT22;1685;53.104;8.228;2022-09-20T01:23:03;10.10;99.90
3344;DHT22;1685;53.104;8.228;2022-09-20T01:28:37;10.00;99.90
3344;DHT22;1685;53.104;8.228;2022-09-20T01:31:09;10.00;99.90
3344;DHT22;1685;53.104;8.228;2022-09-20T01:33:40;9.60;99.90
3344;DHT22;1685;53.104;8.228;2022-09-20T01:36:13;10.00;99.90
3344;DHT22;1685;53.104;8.228;2022-09-20T01:38:47;9.90;99.90
3344;DHT22;1685;53.104;8.228;2022-09-20T01:41:19;9.80;99.90
3344;DHT22;1685;53.104;8.228;2022-09-20T01:43:52;9.90;99.90
3344;DHT22;1685;53.104;8.228;2022-09-20T01:46:28;10.10;99.90
3344;DHT22;1685;53.104;8.228;2022-09-20T01:49:04;9.70;99.90
3344;DHT22;1685;53.104;8.228;2022-09-20T01:52:03;9.70;99.90
3344;DHT22;1685;53.104;8.228;2022-09-20T01:57:57;9.80;99.90
3344;DHT22;1685;53.104;8.228;2022-09-20T02:00:28;9.60;99.90
3344;DHT22;1685;53.104;8.228;2022-09-20T02:03:40;9.60;99.90
3344;DHT22;1685;53.104;8.228;2022-09-20T02:06:22;9.70;99.90
3344;DHT22;1685;53.104;8.228;2022-09-20T02:14:57;9.30;99.90
3344;DHT22;1685;53.104;8.228;2022-09-20T02:17:35;9.50;99.90
3344;DHT22;1685;53.104;8.228;2022-09-20T02:20:17;9.50;99.90
3344;DHT22;1685;53.104;8.228;2022-09-20T02:23:08;9.10;99.90
3344;DHT22;1685;53.104;8.228;2022-09-20T02:25:51;9.30;99.90
3344;DHT22;1685;53.104;8.228;2022-09-20T02:28:27;9.40;99.90
3344;DHT22;1685;53.104;8.228;2022-09-20T02:31:04;9.40;99.90
3344;DHT22;1685;53.104;8.228;2022-09-20T02:33:51;9.50;99.90
3344;DHT22;1685;53.104;8.228;2022-09-20T02:36:31;9.40;99.90
3344;DHT22;1685;53.104;8.228;2022-09-20T02:39:09;9.50;99.90
3344;DHT22;1685;53.104;8.228;2022-09-20T02:41:50;9.50;99.90
3344;DHT22;1685;53.104;8.228;2022-09-20T02:44:27;9.50;99.90
3344;DHT22;1685;53.104;8.228;2022-09-20T02:46:59;9.50;99.90
3344;DHT22;1685;53.104;8.228;2022-09-20T02:49:35;9.50;99.90
3344;DHT22;1685;53.104;8.228;2022-09-20T02:52:14;9.50;99.90
3344;DHT22;1685;53.104;8.228;2022-09-20T02:54:49;9.50;99.90
3344;DHT22;1685;53.104;8.228;2022-09-20T02:57:22;9.50;99.90
3344;DHT22;1685;53.104;8.228;2022-09-20T02:59:55;9.40;99.90
3344;DHT22;1685;53.104;8.228;2022-09-20T03:02:27;9.40;99.90
3344;DHT22;1685;53.104;8.228;2022-09-20T03:05:15;9.50;99.90
3344;DHT22;1685;53.104;8.228;2022-09-20T03:08:00;9.50;99.90
3344;DHT22;1685;53.104;8.228;2022-09-20T03:10:34;9.40;99.90
3344;DHT22;1685;53.104;8.228;2022-09-20T03:13:13;9.40;99.90
3344;DHT22;1685;53.104;8.228;2022-09-20T03:15:51;9.40;99.90
3344;DHT22;1685;53.104;8.228;2022-09-20T03:18:29;9.60;99.90
3344;DHT22;1685;53.104;8.228;2022-09-20T03:21:06;9.50;99.90
3344;DHT22;1685;53.104;8.228;2022-09-20T03:23:43;9.50;99.90
3344;DHT22;1685;53.104;8.228;2022-09-20T03:26:22;9.50;99.90
3344;DHT22;1685;53.104;8.228;2022-09-20T03:29:02;9.60;99.90
3344;DHT22;1685;53.104;8.228;2022-09-20T03:31:42;9.60;99.90
3344;DHT22;1685;53.104;8.228;2022-09-20T03:34:23;9.70;99.90
3344;DHT22;1685;53.104;8.228;2022-09-20T03:37:05;9.70;99.90
3344;DHT22;1685;53.104;8.228;2022-09-20T03:40:09;9.80;99.90
3344;DHT22;1685;53.104;8.228;2022-09-20T03:42:45;9.70;99.90
3344;DHT22;1685;53.104;8.228;2022-09-20T03:45:40;9.90;99.90
3344;DHT22;1685;53.104;8.228;2022-09-20T03:48:40;9.90;99.90
3344;DHT22;1685;53.104;8.228;2022-09-20T03:51:18;9.60;99.90
3344;DHT22;1685;53.104;8.228;2022-09-20T04:00:18;10.00;99.90
3344;DHT22;1685;53.104;8.228;2022-09-20T04:02:59;10.10;99.90
3344;DHT22;1685;53.104;8.228;2022-09-20T04:05:35;10.00;99.90
3344;DHT22;1685;53.104;8.228;2022-09-20T04:08:15;9.90;99.90
3344;DHT22;1685;53.104;8.228;2022-09-20T04:10:53;10.10;99.90
3344;DHT22;1685;53.104;8.228;2022-09-20T04:13:33;10.10;99.90
3344;DHT22;1685;53.104;8.228;2022-09-20T04:16:13;9.90;99.90
3344;DHT22;1685;53.104;8.228;2022-09-20T04:18:48;10.00;99.90
3344;DHT22;1685;53.104;8.228;2022-09-20T04:21:21;10.00;99.90
3344;DHT22;1685;53.104;8.228;2022-09-20T04:23:55;9.90;99.90
3344;DHT22;1685;53.104;8.228;2022-09-20T04:26:25;10.00;99.90
3344;DHT22;1685;53.104;8.228;2022-09-20T04:28:55;10.10;99.90
3344;DHT22;1685;53.104;8.228;2022-09-20T04:31:32;9.90;99.90
3344;DHT22;1685;53.104;8.228;2022-09-20T04:34:04;10.00;99.90
3344;DHT22;1685;53.104;8.228;2022-09-20T04:36:49;10.00;99.90
3344;DHT22;1685;53.104;8.228;2022-09-20T04:39:26;9.90;99.90
3344;DHT22;1685;53.104;8.228;2022-09-20T04:45:22;10.00;99.90
3344;DHT22;1685;53.104;8.228;2022-09-20T04:48:31;9.90;99.90
3344;DHT22;1685;53.104;8.228;2022-09-20T04:51:34;9.90;99.90
3344;DHT22;1685;53.104;8.228;2022-09-20T04:57:41;9.70;99.90
3344;DHT22;1685;53.104;8.228;2022-09-20T05:00:19;9.60;99.90
3344;DHT22;1685;53.104;8.228;2022-09-20T05:03:22;9.60;99.90
3344;DHT22;1685;53.104;8.228;2022-09-20T05:09:07;9.60;99.90
3344;DHT22;1685;53.104;8.228;2022-09-20T05:12:00;9.40;99.90
3344;DHT22;1685;53.104;8.228;2022-09-20T05:14:59;9.40;99.90
3344;DHT22;1685;53.104;8.228;2022-09-20T05:17:37;9.40;99.90
3344;DHT22;1685;53.104;8.228;2022-09-20T05:20:32;9.40;99.90
3344;DHT22;1685;53.104;8.228;2022-09-20T05:23:38;9.40;99.90
3344;DHT22;1685;53.104;8.228;2022-09-20T05:26:17;9.00;99.90
3344;DHT22;1685;53.104;8.228;2022-09-20T05:28:55;9.20;99.90
3344;DHT22;1685;53.104;8.228;2022-09-20T05:31:29;9.30;99.90
3344;DHT22;1685;53.104;8.228;2022-09-20T05:34:08;9.30;99.90
3344;DHT22;1685;53.104;8.228;2022-09-20T05:36:47;9.30;99.90
3344;DHT22;1685;53.104;8.228;2022-09-20T05:39:32;9.20;99.90
3344;DHT22;1685;53.104;8.228;2022-09-20T05:42:08;9.20;99.90
3344;DHT22;1685;53.104;8.228;2022-09-20T05:44:53;9.30;99.90
3344;DHT22;1685;53.104;8.228;2022-09-20T05:47:30;9.10;99.90
3344;DHT22;1685;53.104;8.228;2022-09-20T05:50:13;9.30;99.90
3344;DHT22;1685;53.104;8.228;2022-09-20T05:52:50;9.30;99.90
3344;DHT22;1685;53.104;8.228;2022-09-20T05:55:35;9.70;99.90
3344;DHT22;1685;53.104;8.228;2022-09-20T05:58:27;9.40;99.90
3344;DHT22;1685;53.104;8.228;2022-09-20T06:01:01;9.60;99.90
3344;DHT22;1685;53.104;8.228;2022-09-20T06:03:35;9.50;99.90
3344;DHT22;1685;53.104;8.228;2022-09-20T06:06:09;9.60;99.90
3344;DHT22;1685;53.104;8.228;2022-09-20T06:08:55;9.90;99.90
3344;DHT22;1685;53.104;8.228;2022-09-20T06:11:54;9.80;99.90
3344;DHT22;1685;53.104;8.228;2022-09-20T06:14:38;10.00;99.90
3344;DHT22;1685;53.104;8.228;2022-09-20T06:17:12;10.10;99.90
3344;DHT22;1685;53.104;8.228;2022-09-20T06:19:44;10.10;99.90
3344;DHT22;1685;53.104;8.228;2022-09-20T06:22:15;10.20;99.90
3344;DHT22;1685;53.104;8.228;2022-09-20T06:24:46;10.30;99.90
3344;DHT22;1685;53.104;8.228;2022-09-20T06:27:17;10.40;99.90
3344;DHT22;1685;53.104;8.228;2022-09-20T06:29:52;10.50;99.90
3344;DHT22;1685;53.104;8.228;2022-09-20T06:32:21;10.40;99.90
3344;DHT22;1685;53.104;8.228;2022-09-20T06:34:49;10.60;99.90
3344;DHT22;1685;53.104;8.228;2022-09-20T06:37:33;10.60;99.90
3344;DHT22;1685;53.104;8.228;2022-09-20T06:40:32;10.80;99.90
3344;DHT22;1685;53.104;8.228;2022-09-20T06:43:19;10.90;99.90
3344;DHT22;1685;53.104;8.228;2022-09-20T06:45:47;10.90;99.90
3344;DHT22;1685;53.104;8.228;2022-09-20T06:53:14;10.90;99.90
3344;DHT22;1685;53.104;8.228;2022-09-20T07:03:06;11.10;99.90
3344;DHT22;1685;53.104;8.228;2022-09-20T07:08:01;11.20;99.90
3344;DHT22;1685;53.104;8.228;2022-09-20T07:12:55;11.20;99.90
3344;DHT22;1685;53.104;8.228;2022-09-20T07:17:51;11.40;99.90
3344;DHT22;1685;53.104;8.228;2022-09-20T07:20:19;11.20;99.90
3344;DHT22;1685;53.104;8.228;2022-09-20T07:22:46;11.30;99.90
3344;DHT22;1685;53.104;8.228;2022-09-20T07:25:13;11.40;99.90
3344;DHT22;1685;53.104;8.228;2022-09-20T07:30:09;11.20;99.90
3344;DHT22;1685;53.104;8.228;2022-09-20T07:35:06;11.30;99.90
3344;DHT22;1685;53.104;8.228;2022-09-20T07:37:34;11.40;99.90
3344;DHT22;1685;53.104;8.228;2022-09-20T07:40:02;11.50;99.90
3344;DHT22;1685;53.104;8.228;2022-09-20T07:42:29;11.50;99.90
3344;DHT22;1685;53.104;8.228;2022-09-20T07:47:24;11.70;99.90
3344;DHT22;1685;53.104;8.228;2022-09-20T07:54:48;11.90;99.90
3344;DHT22;1685;53.104;8.228;2022-09-20T07:57:15;11.90;99.90
3344;DHT22;1685;53.104;8.228;2022-09-20T08:02:13;11.80;99.90
3344;DHT22;1685;53.104;8.228;2022-09-20T08:07:07;12.10;99.90
3344;DHT22;1685;53.104;8.228;2022-09-20T08:12:02;12.00;99.90
3344;DHT22;1685;53.104;8.228;2022-09-20T08:19:24;12.40;99.90
3344;DHT22;1685;53.104;8.228;2022-09-20T08:29:15;12.90;99.90
3344;DHT22;1685;53.104;8.228;2022-09-20T08:34:11;13.30;99.90
3344;DHT22;1685;53.104;8.228;2022-09-20T08:36:41;13.60;99.90
3344;DHT22;1685;53.104;8.228;2022-09-20T08:41:41;14.20;99.90
3344;DHT22;1685;53.104;8.228;2022-09-20T08:44:13;14.40;99.90
3344;DHT22;1685;53.104;8.228;2022-09-20T08:46:45;14.40;99.90
3344;DHT22;1685;53.104;8.228;2022-09-20T08:49:17;14.60;99.90
3344;DHT22;1685;53.104;8.228;2022-09-20T08:59:15;15.70;99.90
3344;DHT22;1685;53.104;8.228;2022-09-20T09:01:44;15.60;99.90
3344;DHT22;1685;53.104;8.228;2022-09-20T09:04:15;15.20;99.90
3344;DHT22;1685;53.104;8.228;2022-09-20T09:09:15;15.10;99.90
3344;DHT22;1685;53.104;8.228;2022-09-20T09:14:12;15.10;99.90
3344;DHT22;1685;53.104;8.228;2022-09-20T09:16:57;15.00;99.90
3344;DHT22;1685;53.104;8.228;2022-09-20T09:19:27;15.00;99.90
3344;DHT22;1685;53.104;8.228;2022-09-20T09:21:56;14.90;99.90
3344;DHT22;1685;53.104;8.228;2022-09-20T09:27:04;14.90;99.90
3344;DHT22;1685;53.104;8.228;2022-09-20T09:32:18;14.90;99.90
3344;DHT22;1685;53.104;8.228;2022-09-20T09:37:22;14.70;99.90
3344;DHT22;1685;53.104;8.228;2022-09-20T09:40:05;14.70;99.90
3344;DHT22;1685;53.104;8.228;2022-09-20T09:45:10;15.10;99.90
3344;DHT22;1685;53.104;8.228;2022-09-20T09:47:38;14.80;99.90
3344;DHT22;1685;53.104;8.228;2022-09-20T09:50:11;14.70;99.90
3344;DHT22;1685;53.104;8.228;2022-09-20T09:52:56;14.90;99.90
3344;DHT22;1685;53.104;8.228;2022-09-20T09:55:24;15.00;99.90
3344;DHT22;1685;53.104;8.228;2022-09-20T09:57:56;15.20;99.90
3344;DHT22;1685;53.104;8.228;2022-09-20T10:03:17;15.10;99.90
3344;DHT22;1685;53.104;8.228;2022-09-20T10:05:55;15.10;99.90
3344;DHT22;1685;53.104;8.228;2022-09-20T10:08:28;15.00;99.90
3344;DHT22;1685;53.104;8.228;2022-09-20T10:11:06;15.00;99.90
3344;DHT22;1685;53.104;8.228;2022-09-20T10:13:39;15.00;99.90
3344;DHT22;1685;53.104;8.228;2022-09-20T10:16:13;14.90;99.90
3344;DHT22;1685;53.104;8.228;2022-09-20T10:18:50;15.00;99.90
3344;DHT22;1685;53.104;8.228;2022-09-20T10:21:35;14.90;99.90
3344;DHT22;1685;53.104;8.228;2022-09-20T10:24:17;15.10;99.90
3344;DHT22;1685;53.104;8.228;2022-09-20T10:27:05;15.40;99.90
3344;DHT22;1685;53.104;8.228;2022-09-20T10:29:45;15.30;99.90
3344;DHT22;1685;53.104;8.228;2022-09-20T10:32:23;15.30;99.90
3344;DHT22;1685;53.104;8.228;2022-09-20T10:35:19;15.20;99.90
3344;DHT22;1685;53.104;8.228;2022-09-20T10:37:59;15.40;99.90
3344;DHT22;1685;53.104;8.228;2022-09-20T10:40:34;15.70;99.90
3344;DHT22;1685;53.104;8.228;2022-09-20T10:43:30;15.40;99.90
3344;DHT22;1685;53.104;8.228;2022-09-20T10:46:07;15.50;99.90
3344;DHT22;1685;53.104;8.228;2022-09-20T10:48:40;15.40;99.90
3344;DHT22;1685;53.104;8.228;2022-09-20T10:51:15;15.30;99.90
3344;DHT22;1685;53.104;8.228;2022-09-20T10:53:56;15.40;99.90
3344;DHT22;1685;53.104;8.228;2022-09-20T10:56:28;15.50;99.90
3344;DHT22;1685;53.104;8.228;2022-09-20T11:02:08;15.40;99.90
3344;DHT22;1685;53.104;8.228;2022-09-20T11:04:50;15.20;99.90
3344;DHT22;1685;53.104;8.228;2022-09-20T11:07:31;15.50;99.90
3344;DHT22;1685;53.104;8.228;2022-09-20T11:10:04;15.90;99.90
3344;DHT22;1685;53.104;8.228;2022-09-20T11:12:36;15.80;99.90
3344;DHT22;1685;53.104;8.228;2022-09-20T11:15:12;16.00;99.90
3344;DHT22;1685;53.104;8.228;2022-09-20T11:17:44;16.20;99.90
3344;DHT22;1685;53.104;8.228;2022-09-20T11:20:16;16.00;99.90
3344;DHT22;1685;53.104;8.228;2022-09-20T11:22:50;15.90;99.90
3344;DHT22;1685;53.104;8.228;2022-09-20T11:25:20;15.60;99.90
3344;DHT22;1685;53.104;8.228;2022-09-20T11:27:52;15.20;99.90
3344;DHT22;1685;53.104;8.228;2022-09-20T11:32:50;14.60;99.90
3344;DHT22;1685;53.104;8.228;2022-09-20T11:35:24;14.30;99.90
3344;DHT22;1685;53.104;8.228;2022-09-20T11:38:00;14.10;99.90
3344;DHT22;1685;53.104;8.228;2022-09-20T11:40:31;13.70;99.90
3344;DHT22;1685;53.104;8.228;2022-09-20T11:43:01;13.70;99.90
3344;DHT22;1685;53.104;8.228;2022-09-20T11:48:01;13.50;99.90
3344;DHT22;1685;53.104;8.228;2022-09-20T11:50:46;13.50;99.90
3344;DHT22;1685;53.104;8.228;2022-09-20T11:53:29;13.40;99.90
3344;DHT22;1685;53.104;8.228;2022-09-20T11:56:02;13.40;99.90
3344;DHT22;1685;53.104;8.228;2022-09-20T11:58:43;13.30;99.90
3344;DHT22;1685;53.104;8.228;2022-09-20T12:01:11;13.20;99.90
3344;DHT22;1685;53.104;8.228;2022-09-20T12:03:40;13.10;99.90
3344;DHT22;1685;53.104;8.228;2022-09-20T12:06:28;13.10;99.90
3344;DHT22;1685;53.104;8.228;2022-09-20T12:09:00;13.20;99.90
3344;DHT22;1685;53.104;8.228;2022-09-20T12:11:30;13.20;99.90
3344;DHT22;1685;53.104;8.228;2022-09-20T12:14:03;13.20;99.90
3344;DHT22;1685;53.104;8.228;2022-09-20T12:16:39;13.40;99.90
3344;DHT22;1685;53.104;8.228;2022-09-20T12:19:09;13.40;99.90
3344;DHT22;1685;53.104;8.228;2022-09-20T12:22:24;13.60;99.90
3344;DHT22;1685;53.104;8.228;2022-09-20T12:27:58;13.60;99.90
3344;DHT22;1685;53.104;8.228;2022-09-20T12:32:57;13.80;99.90
3344;DHT22;1685;53.104;8.228;2022-09-20T12:36:15;13.80;99.90
3344;DHT22;1685;53.104;8.228;2022-09-20T12:39:03;13.90;99.90
3344;DHT22;1685;53.104;8.228;2022-09-20T12:41:46;14.00;99.90
3344;DHT22;1685;53.104;8.228;2022-09-20T12:44:27;14.10;99.90
3344;DHT22;1685;53.104;8.228;2022-09-20T12:46:57;14.10;99.90
3344;DHT22;1685;53.104;8.228;2022-09-20T12:49:38;14.20;99.90
3344;DHT22;1685;53.104;8.228;2022-09-20T12:52:27;14.20;99.90
3344;DHT22;1685;53.104;8.228;2022-09-20T12:55:35;14.10;99.90
3344;DHT22;1685;53.104;8.228;2022-09-20T12:58:17;14.20;99.90
3344;DHT22;1685;53.104;8.228;2022-09-20T13:00:48;14.30;99.90
3344;DHT22;1685;53.104;8.228;2022-09-20T13:03:24;14.50;99.90
3344;DHT22;1685;53.104;8.228;2022-09-20T13:06:21;14.30;99.90
3344;DHT22;1685;53.104;8.228;2022-09-20T13:08:51;14.40;99.90
3344;DHT22;1685;53.104;8.228;2022-09-20T13:11:23;14.40;99.90
3344;DHT22;1685;53.104;8.228;2022-09-20T13:13:55;14.60;99.90
3344;DHT22;1685;53.104;8.228;2022-09-20T13:16:28;14.40;99.90
3344;DHT22;1685;53.104;8.228;2022-09-20T13:19:00;14.40;99.90
3344;DHT22;1685;53.104;8.228;2022-09-20T13:21:30;14.50;99.90
3344;DHT22;1685;53.104;8.228;2022-09-20T13:26:28;14.50;99.90
3344;DHT22;1685;53.104;8.228;2022-09-20T13:31:28;14.60;99.90
3344;DHT22;1685;53.104;8.228;2022-09-20T13:34:13;14.70;99.90
3344;DHT22;1685;53.104;8.228;2022-09-20T13:39:22;14.80;99.90
3344;DHT22;1685;53.104;8.228;2022-09-20T13:41:50;15.20;99.90
3344;DHT22;1685;53.104;8.228;2022-09-20T13:44:18;14.90;99.90
3344;DHT22;1685;53.104;8.228;2022-09-20T13:46:46;14.70;99.90
3344;DHT22;1685;53.104;8.228;2022-09-20T13:49:15;14.50;99.90
3344;DHT22;1685;53.104;8.228;2022-09-20T13:54:24;14.10;99.90
3344;DHT22;1685;53.104;8.228;2022-09-20T13:56:52;13.90;99.90
3344;DHT22;1685;53.104;8.228;2022-09-20T14:01:52;14.10;99.90
3344;DHT22;1685;53.104;8.228;2022-09-20T14:04:22;14.00;99.90
3344;DHT22;1685;53.104;8.228;2022-09-20T14:06:51;13.90;99.90
3344;DHT22;1685;53.104;8.228;2022-09-20T14:09:22;13.90;99.90
3344;DHT22;1685;53.104;8.228;2022-09-20T14:16:48;14.00;99.90
3344;DHT22;1685;53.104;8.228;2022-09-20T14:19:20;13.90;99.90
3344;DHT22;1685;53.104;8.228;2022-09-20T14:24:24;13.90;99.90
3344;DHT22;1685;53.104;8.228;2022-09-20T14:27:04;13.80;99.90
3344;DHT22;1685;53.104;8.228;2022-09-20T14:29:38;13.70;99.90
3344;DHT22;1685;53.104;8.228;2022-09-20T14:32:09;13.80;99.90
3344;DHT22;1685;53.104;8.228;2022-09-20T14:34:39;13.70;99.90
3344;DHT22;1685;53.104;8.228;2022-09-20T14:37:12;13.70;99.90
3344;DHT22;1685;53.104;8.228;2022-09-20T14:39:46;13.70;99.90
3344;DHT22;1685;53.104;8.228;2022-09-20T14:42:27;13.70;99.90
3344;DHT22;1685;53.104;8.228;2022-09-20T14:47:25;13.90;99.90
3344;DHT22;1685;53.104;8.228;2022-09-20T14:49:54;13.60;99.90
3344;DHT22;1685;53.104;8.228;2022-09-20T14:52:38;13.30;99.90
3344;DHT22;1685;53.104;8.228;2022-09-20T14:55:25;13.50;99.90
3344;DHT22;1685;53.104;8.228;2022-09-20T14:57:57;13.30;99.90
3344;DHT22;1685;53.104;8.228;2022-09-20T15:00:25;13.30;99.90
3344;DHT22;1685;53.104;8.228;2022-09-20T15:05:24;13.30;99.90
3344;DHT22;1685;53.104;8.228;2022-09-20T15:07:52;13.30;99.90
3344;DHT22;1685;53.104;8.228;2022-09-20T15:10:19;13.40;99.90
3344;DHT22;1685;53.104;8.228;2022-09-20T15:12:46;13.30;99.90
3344;DHT22;1685;53.104;8.228;2022-09-20T15:15:15;13.40;99.90
3344;DHT22;1685;53.104;8.228;2022-09-20T15:17:44;13.40;99.90
3344;DHT22;1685;53.104;8.228;2022-09-20T15:20:16;13.50;99.90
3344;DHT22;1685;53.104;8.228;2022-09-20T15:22:46;13.00;99.90
3344;DHT22;1685;53.104;8.228;2022-09-20T15:25:16;13.60;99.90
3344;DHT22;1685;53.104;8.228;2022-09-20T15:30:13;13.40;99.90
3344;DHT22;1685;53.104;8.228;2022-09-20T15:35:08;13.30;99.90
3344;DHT22;1685;53.104;8.228;2022-09-20T15:40:04;13.50;99.90
3344;DHT22;1685;53.104;8.228;2022-09-20T15:42:32;13.30;99.90
3344;DHT22;1685;53.104;8.228;2022-09-20T15:45:04;13.20;99.90
3344;DHT22;1685;53.104;8.228;2022-09-20T15:47:31;13.20;99.90
3344;DHT22;1685;53.104;8.228;2022-09-20T15:49:58;13.20;99.90
3344;DHT22;1685;53.104;8.228;2022-09-20T15:52:24;13.20;99.90
3344;DHT22;1685;53.104;8.228;2022-09-20T15:54:53;13.00;99.90
3344;DHT22;1685;53.104;8.228;2022-09-20T15:57:25;13.00;99.90
3344;DHT22;1685;53.104;8.228;2022-09-20T16:04:46;12.70;99.90
3344;DHT22;1685;53.104;8.228;2022-09-20T16:07:15;12.80;99.90
3344;DHT22;1685;53.104;8.228;2022-09-20T16:12:10;12.80;99.90
3344;DHT22;1685;53.104;8.228;2022-09-20T16:14:38;12.80;99.90
3344;DHT22;1685;53.104;8.228;2022-09-20T16:24:27;12.90;99.90
3344;DHT22;1685;53.104;8.228;2022-09-20T16:31:52;12.60;99.90
3344;DHT22;1685;53.104;8.228;2022-09-20T16:34:21;12.60;99.90
3344;DHT22;1685;53.104;8.228;2022-09-20T16:36:50;12.50;99.90
3344;DHT22;1685;53.104;8.228;2022-09-20T16:39:18;12.50;99.90
3344;DHT22;1685;53.104;8.228;2022-09-20T16:41:46;12.50;99.90
3344;DHT22;1685;53.104;8.228;2022-09-20T16:44:14;12.50;99.90
3344;DHT22;1685;53.104;8.228;2022-09-20T16:46:40;12.50;99.90
3344;DHT22;1685;53.104;8.228;2022-09-20T16:49:11;12.50;99.90
3344;DHT22;1685;53.104;8.228;2022-09-20T16:51:40;12.30;99.90
3344;DHT22;1685;53.104;8.228;2022-09-20T16:54:09;12.30;99.90
3344;DHT22;1685;53.104;8.228;2022-09-20T16:56:38;12.20;99.90
3344;DHT22;1685;53.104;8.228;2022-09-20T16:59:05;12.20;99.90
3344;DHT22;1685;53.104;8.228;2022-09-20T17:01:33;12.10;99.90
3344;DHT22;1685;53.104;8.228;2022-09-20T17:04:02;12.20;99.90
3344;DHT22;1685;53.104;8.228;2022-09-20T17:06:31;12.10;99.90
3344;DHT22;1685;53.104;8.228;2022-09-20T17:11:28;12.00;99.90
3344;DHT22;1685;53.104;8.228;2022-09-20T17:13:55;11.70;99.90
3344;DHT22;1685;53.104;8.228;2022-09-20T17:16:24;12.00;99.90
3344;DHT22;1685;53.104;8.228;2022-09-20T17:18:52;12.00;99.90
3344;DHT22;1685;53.104;8.228;2022-09-20T17:23:49;11.90;99.90
3344;DHT22;1685;53.104;8.228;2022-09-20T17:26:20;11.90;99.90
3344;DHT22;1685;53.104;8.228;2022-09-20T17:28:49;11.80;99.90
3344;DHT22;1685;53.104;8.228;2022-09-20T17:31:19;11.70;99.90
3344;DHT22;1685;53.104;8.228;2022-09-20T17:33:47;11.70;99.90
3344;DHT22;1685;53.104;8.228;2022-09-20T17:36:16;11.60;99.90
3344;DHT22;1685;53.104;8.228;2022-09-20T17:41:13;11.40;99.90
3344;DHT22;1685;53.104;8.228;2022-09-20T17:43:41;11.40;99.90
3344;DHT22;1685;53.104;8.228;2022-09-20T17:46:10;11.40;99.90
3344;DHT22;1685;53.104;8.228;2022-09-20T17:48:38;11.40;99.90
3344;DHT22;1685;53.104;8.228;2022-09-20T17:51:06;11.40;99.90
3344;DHT22;1685;53.104;8.228;2022-09-20T17:53:33;11.30;99.90
3344;DHT22;1685;53.104;8.228;2022-09-20T17:56:01;11.20;99.90
3344;DHT22;1685;53.104;8.228;2022-09-20T17:58:32;11.10;99.90
3344;DHT22;1685;53.104;8.228;2022-09-20T18:01:04;11.20;99.90
3344;DHT22;1685;53.104;8.228;2022-09-20T18:03:35;11.10;99.90
3344;DHT22;1685;53.104;8.228;2022-09-20T18:06:13;11.10;99.90
3344;DHT22;1685;53.104;8.228;2022-09-20T18:08:40;11.10;99.90
3344;DHT22;1685;53.104;8.228;2022-09-20T18:11:07;11.00;99.90
3344;DHT22;1685;53.104;8.228;2022-09-20T18:13:35;11.00;99.90
3344;DHT22;1685;53.104;8.228;2022-09-20T18:16:02;10.90;99.90
3344;DHT22;1685;53.104;8.228;2022-09-20T18:18:30;10.40;99.90
3344;DHT22;1685;53.104;8.228;2022-09-20T18:20:57;10.80;99.90
3344;DHT22;1685;53.104;8.228;2022-09-20T18:25:51;10.60;99.90
3344;DHT22;1685;53.104;8.228;2022-09-20T18:28:37;10.10;99.90
3344;DHT22;1685;53.104;8.228;2022-09-20T18:31:04;10.60;99.90
3344;DHT22;1685;53.104;8.228;2022-09-20T18:36:02;10.60;99.90
3344;DHT22;1685;53.104;8.228;2022-09-20T18:40:58;10.50;99.90
3344;DHT22;1685;53.104;8.228;2022-09-20T18:43:26;10.40;99.90
3344;DHT22;1685;53.104;8.228;2022-09-20T18:45:56;10.30;99.90
3344;DHT22;1685;53.104;8.228;2022-09-20T18:48:24;10.40;99.90
3344;DHT22;1685;53.104;8.228;2022-09-20T18:50:55;10.30;99.90
3344;DHT22;1685;53.104;8.228;2022-09-20T18:53:24;10.30;99.90
3344;DHT22;1685;53.104;8.228;2022-09-20T18:55:51;10.20;99.90
3344;DHT22;1685;53.104;8.228;2022-09-20T18:58:20;10.20;99.90
3344;DHT22;1685;53.104;8.228;2022-09-20T19:00:57;10.20;99.90
3344;DHT22;1685;53.104;8.228;2022-09-20T19:03:38;10.30;99.90
3344;DHT22;1685;53.104;8.228;2022-09-20T19:06:08;10.20;99.90
3344;DHT22;1685;53.104;8.228;2022-09-20T19:08:39;10.10;99.90
3344;DHT22;1685;53.104;8.228;2022-09-20T19:11:13;10.00;99.90
3344;DHT22;1685;53.104;8.228;2022-09-20T19:13:47;10.10;99.90
3344;DHT22;1685;53.104;8.228;2022-09-20T19:16:21;10.00;99.90
3344;DHT22;1685;53.104;8.228;2022-09-20T19:19:20;9.90;99.90
3344;DHT22;1685;53.104;8.228;2022-09-20T19:22:04;9.50;99.90
3344;DHT22;1685;53.104;8.228;2022-09-20T19:24:46;9.70;99.90
3344;DHT22;1685;53.104;8.228;2022-09-20T19:27:20;9.80;99.90
3344;DHT22;1685;53.104;8.228;2022-09-20T19:29:48;10.00;99.90
3344;DHT22;1685;53.104;8.228;2022-09-20T19:32:17;9.80;99.90
3344;DHT22;1685;53.104;8.228;2022-09-20T19:34:49;9.70;99.90
3344;DHT22;1685;53.104;8.228;2022-09-20T19:37:24;9.80;99.90
3344;DHT22;1685;53.104;8.228;2022-09-20T19:40:09;9.90;99.90
3344;DHT22;1685;53.104;8.228;2022-09-20T19:42:49;9.60;99.90
3344;DHT22;1685;53.104;8.228;2022-09-20T19:45:26;9.50;99.90
3344;DHT22;1685;53.104;8.228;2022-09-20T19:48:04;9.50;99.90
3344;DHT22;1685;53.104;8.228;2022-09-20T19:50:36;9.40;99.90
3344;DHT22;1685;53.104;8.228;2022-09-20T19:53:05;9.10;99.90
3344;DHT22;1685;53.104;8.228;2022-09-20T19:55:33;9.30;99.90
3344;DHT22;1685;53.104;8.228;2022-09-20T19:58:01;9.30;99.90
3344;DHT22;1685;53.104;8.228;2022-09-20T20:00:28;9.20;99.90
3344;DHT22;1685;53.104;8.228;2022-09-20T20:02:56;9.40;99.90
3344;DHT22;1685;53.104;8.228;2022-09-20T20:05:25;9.20;99.90
3344;DHT22;1685;53.104;8.228;2022-09-20T20:08:10;9.20;99.90
3344;DHT22;1685;53.104;8.228;2022-09-20T20:10:46;9.10;99.90
3344;DHT22;1685;53.104;8.228;2022-09-20T20:13:23;9.10;99.90
3344;DHT22;1685;53.104;8.228;2022-09-20T20:16:12;9.10;99.90
3344;DHT22;1685;53.104;8.228;2022-09-20T20:18:53;9.10;99.90
3344;DHT22;1685;53.104;8.228;2022-09-20T20:21:32;9.00;99.90
3344;DHT22;1685;53.104;8.228;2022-09-20T20:24:05;9.00;99.90
3344;DHT22;1685;53.104;8.228;2022-09-20T20:26:34;9.40;99.90
3344;DHT22;1685;53.104;8.228;2022-09-20T20:29:01;8.90;99.90
3344;DHT22;1685;53.104;8.228;2022-09-20T20:33:56;8.80;99.90